Time;durP1;ratioP1;P1;durP2;ratioP2;P2;SDS_P1;SDS_P2;PMS_P1;PMS_P2;Temp;Humidity;BMP_temperature;BMP_pressure;BME280_temperature;BME280_humidity;BME280_pressure;Samples;Min_cycle;Max_cycle;Signal;HPM_P1;HPM_P2
2021/12/06 00:02:17;;;;;;;17.63;11.38;;;;;;;3.91;77.08;99268.88;4997901;28;20041;-81
2021/12/06 00:04:45;;;;;;;19.48;10.27;;;;;;;3.94;77.31;99269.59;5033764;28;20068;-81
2021/12/06 00:07:15;;;;;;;18.42;11.65;;;;;;;3.94;77.42;99273.06;5018744;28;20049;-81
2021/12/06 00:09:42;;;;;;;16.98;10.25;;;;;;;3.95;77.25;99274.75;5023077;28;20050;-81
2021/12/06 00:12:10;;;;;;;20.23;11.95;;;;;;;3.94;77.25;99273.06;5019238;28;20038;-81
2021/12/06 00:14:40;;;;;;;19.70;11.23;;;;;;;3.92;77.22;99278.44;5039429;28;20388;-81
2021/12/06 00:17:10;;;;;;;19.30;11.05;;;;;;;3.90;77.30;99280.34;5021733;28;20140;-81
2021/12/06 00:19:38;;;;;;;19.15;10.95;;;;;;;3.92;76.98;99283.69;5040038;28;20055;-81
2021/12/06 00:22:08;;;;;;;17.52;11.30;;;;;;;3.91;77.19;99278.53;5026346;28;20033;-81
2021/12/06 00:24:34;;;;;;;19.42;11.27;;;;;;;3.91;77.32;99281.16;5028883;28;20049;-81
2021/12/06 00:27:02;;;;;;;17.98;10.13;;;;;;;3.91;77.06;99281.16;5004975;28;20053;-81
2021/12/06 00:29:28;;;;;;;16.25;11.75;;;;;;;3.90;77.18;99280.34;5000807;28;20127;-80
2021/12/06 00:31:55;;;;;;;18.90;10.52;;;;;;;3.90;77.26;99276.88;5042960;28;20046;-81
2021/12/06 00:34:24;;;;;;;15.98;10.68;;;;;;;3.89;77.43;99278.66;5011707;28;20045;-81
2021/12/06 00:37:05;;;;;;;18.95;9.60;;;;;;;3.89;77.50;99286.56;5009829;28;20576;-80
2021/12/06 00:39:33;;;;;;;16.10;9.77;;;;;;;3.87;77.39;99284.97;5041712;28;20050;-81
2021/12/06 00:42:03;;;;;;;14.90;9.82;;;;;;;3.87;77.29;99282.34;5024488;28;20489;-81
2021/12/06 00:44:30;;;;;;;13.25;8.60;;;;;;;3.87;77.22;99287.59;5026453;28;20076;-81
2021/12/06 00:46:56;;;;;;;16.08;9.18;;;;;;;3.87;77.22;99295.47;5024077;28;20053;-81
2021/12/06 00:49:23;;;;;;;14.57;8.65;;;;;;;3.86;77.32;99301.66;5025638;28;20061;-81
2021/12/06 00:51:50;;;;;;;19.13;8.65;;;;;;;3.85;77.32;99305.25;5039510;28;20120;-81
2021/12/06 00:54:17;;;;;;;18.23;9.15;;;;;;;3.84;77.17;99298.28;5033499;28;20413;-81
2021/12/06 00:56:44;;;;;;;11.95;8.27;;;;;;;3.83;77.11;99297.47;5007258;28;20041;-81
2021/12/06 00:59:11;;;;;;;15.32;9.30;;;;;;;3.83;77.25;99297.47;5026325;28;20470;-81
2021/12/06 01:01:38;;;;;;;13.43;8.88;;;;;;;3.82;77.05;99305.47;5028407;28;20102;-81
2021/12/06 01:04:06;;;;;;;15.70;9.93;;;;;;;3.81;76.96;99311.66;5010180;28;20099;-82
2021/12/06 01:06:33;;;;;;;17.70;9.55;;;;;;;3.81;77.02;99316.91;5007419;28;20072;-80
2021/12/06 01:09:03;;;;;;;18.23;10.77;;;;;;;3.80;76.85;99325.72;5002359;28;20436;-81
2021/12/06 01:11:29;;;;;;;22.42;11.85;;;;;;;3.80;76.55;99330.97;5040871;28;20168;-80
2021/12/06 01:13:57;;;;;;;22.73;12.63;;;;;;;3.79;76.88;99334.53;5024050;28;20076;-80
2021/12/06 01:16:25;;;;;;;24.13;13.50;;;;;;;3.78;76.99;99341.59;5004607;28;20507;-80
2021/12/06 01:18:52;;;;;;;28.35;13.80;;;;;;;3.78;77.03;99346.84;5041846;28;20060;-80
2021/12/06 01:24:24;;;;;;;30.75;15.02;;;;;;;3.77;77.63;99358.28;4997930;28;20493;-81
2021/12/06 01:32:10;;;;;;;27.10;14.18;;;;;;;3.77;77.57;99375.84;5016994;28;20136;-80
2021/12/06 01:40:09;;;;;;;29.33;14.45;;;;;;;3.75;77.63;99389.06;4987872;28;20041;-80
2021/12/06 01:42:36;;;;;;;33.45;14.50;;;;;;;3.75;78.00;99380.34;5026525;28;20103;-80
2021/12/06 01:45:04;;;;;;;31.48;12.98;;;;;;;3.77;77.66;99387.19;5041891;28;20049;-80
2021/12/06 01:47:35;;;;;;;23.42;13.18;;;;;;;3.76;77.97;99388.09;4997191;28;20588;-80
2021/12/06 01:50:15;;;;;;;24.08;10.88;;;;;;;3.73;77.81;99393.56;5004569;28;20053;-81
2021/12/06 01:52:51;;;;;;;18.27;8.85;;;;;;;3.74;77.92;99390.03;5018887;28;20510;-81
2021/12/06 01:55:20;;;;;;;;;;;;;;;3.62;78.45;99396.09;5024158;28;20500;-81
2021/12/06 01:57:47;;;;;;;23.63;11.43;;;;;;;3.71;78.05;99392.81;5035767;28;20353;-81
2021/12/06 02:00:19;;;;;;;17.65;9.45;;;;;;;3.71;78.12;99395.47;5041245;28;20046;-81
2021/12/06 02:02:51;;;;;;;19.83;9.40;;;;;;;3.73;78.11;99398.81;5041382;28;20049;-80
2021/12/06 02:05:24;;;;;;;14.32;8.05;;;;;;;3.73;78.08;99400.63;5021208;28;20052;-80
2021/12/06 02:07:51;;;;;;;13.95;7.65;;;;;;;3.72;78.24;99406.81;5006386;28;20054;-81
2021/12/06 02:10:18;;;;;;;13.95;7.50;;;;;;;3.73;77.96;99411.13;5011339;28;20053;-81
2021/12/06 02:12:48;;;;;;;14.05;6.85;;;;;;;3.73;78.20;99411.97;5024685;28;20120;-80
2021/12/06 02:15:38;;;;;;;12.23;7.53;;;;;;;3.73;77.96;99416.38;5022949;28;20045;-81
2021/12/06 02:18:13;;;;;;;14.98;8.13;;;;;;;3.72;78.22;99422.59;5022782;28;20053;-81
2021/12/06 02:20:49;;;;;;;13.55;7.60;;;;;;;3.73;78.19;99432.13;5006738;28;20496;-81
2021/12/06 02:23:17;;;;;;;17.88;8.70;;;;;;;3.72;78.03;99435.72;5006694;28;20045;-81
2021/12/06 02:25:45;;;;;;;16.42;8.20;;;;;;;3.73;77.93;99429.50;5037811;28;20062;-81
2021/12/06 02:28:12;;;;;;;15.32;7.93;;;;;;;3.72;77.95;99427.84;5024589;28;20046;-81
2021/12/06 02:30:38;;;;;;;16.35;8.50;;;;;;;3.72;78.09;99427.84;5025236;28;20049;-82
2021/12/06 02:33:05;;;;;;;15.02;8.95;;;;;;;3.73;78.24;99429.50;5041279;28;20489;-81
2021/12/06 02:35:32;;;;;;;15.73;8.23;;;;;;;3.72;78.16;99431.28;5024990;28;20059;-81
2021/12/06 02:38:07;;;;;;;15.85;8.70;;;;;;;3.70;77.95;99436.63;5025173;28;20045;-81
2021/12/06 02:40:39;;;;;;;15.82;8.70;;;;;;;3.69;78.07;99439.38;5006084;28;24779;-81
2021/12/06 02:43:09;;;;;;;18.23;9.45;;;;;;;3.70;78.11;99433.19;5036385;28;20063;-81
2021/12/06 02:45:40;;;;;;;15.23;8.48;;;;;;;3.68;78.23;99430.63;5039201;28;20049;-81
2021/12/06 02:48:12;;;;;;;17.90;9.13;;;;;;;3.69;78.30;99434.97;5022912;28;20045;-81
2021/12/06 02:50:46;;;;;;;15.93;8.57;;;;;;;3.67;78.35;99434.22;5007964;28;20061;-81
2021/12/06 02:53:12;;;;;;;;;;;;;;;3.54;78.51;99429.91;5038634;28;20481;-81
2021/12/06 02:55:40;;;;;;;18.80;8.85;;;;;;;3.63;78.52;99430.09;5022147;28;19929;-81
2021/12/06 02:58:45;;;;;;;14.15;8.77;;;;;;;3.63;78.38;99439.78;5022375;28;20060;-81
2021/12/06 03:01:24;;;;;;;17.15;8.52;;;;;;;3.62;78.18;99445.97;4996275;28;20539;-81
2021/12/06 03:03:52;;;;;;;18.42;9.15;;;;;;;3.64;78.36;99446.72;4959574;28;20041;-80
2021/12/06 03:06:19;;;;;;;18.80;9.00;;;;;;;3.64;78.31;99450.19;5019156;28;20053;-80
2021/12/06 03:08:47;;;;;;;22.05;11.40;;;;;;;3.64;78.20;99447.56;5025353;28;20045;-81
2021/12/06 03:11:21;;;;;;;26.13;12.38;;;;;;;3.62;78.13;99452.06;5030397;28;20049;-80
2021/12/06 03:13:48;;;;;;;24.65;12.48;;;;;;;3.64;78.25;99454.59;5020827;28;20063;-81
2021/12/06 03:16:16;;;;;;;26.40;12.88;;;;;;;3.64;78.28;99458.06;5022899;28;20047;-81
2021/12/06 03:18:45;;;;;;;29.63;13.02;;;;;;;3.63;78.45;99456.34;4991547;28;20065;-81
2021/12/06 03:21:13;;;;;;;26.63;13.48;;;;;;;3.63;78.28;99461.59;5003237;28;20052;-80
2021/12/06 03:23:40;;;;;;;22.25;12.15;;;;;;;3.63;78.47;99455.53;5007570;28;20065;-81
2021/12/06 03:26:07;;;;;;;24.95;12.65;;;;;;;3.64;78.67;99471.19;5022714;28;20712;-81
2021/12/06 03:28:35;;;;;;;28.90;13.23;;;;;;;3.64;78.59;99478.22;5038141;28;20411;-81
2021/12/06 03:31:04;;;;;;;24.65;12.20;;;;;;;3.63;78.73;99477.38;5002961;28;20125;-81
2021/12/06 03:33:31;;;;;;;24.63;11.38;;;;;;;3.63;78.75;99477.38;5029940;28;20139;-81
2021/12/06 03:35:58;;;;;;;26.77;13.00;;;;;;;3.63;78.73;99477.38;5014266;28;20048;-81
2021/12/06 03:38:26;;;;;;;24.50;11.50;;;;;;;3.64;78.83;99484.31;5023802;28;20065;-81
2021/12/06 03:40:53;;;;;;;23.15;10.18;;;;;;;3.61;78.79;99468.78;5025222;28;20068;-81
2021/12/06 03:43:20;;;;;;;16.70;8.43;;;;;;;3.63;78.59;99477.38;5026630;28;20042;-81
2021/12/06 03:45:47;;;;;;;16.42;8.35;;;;;;;3.62;78.59;99480.94;5005094;28;20123;-81
2021/12/06 03:48:13;;;;;;;12.13;7.13;;;;;;;3.62;78.76;99478.31;5023082;28;20072;-80
2021/12/06 03:50:40;;;;;;;13.13;7.13;;;;;;;3.62;78.53;99482.72;5021427;28;20123;-81
2021/12/06 03:53:07;;;;;;;14.68;6.93;;;;;;;3.60;78.70;99485.44;5020734;28;20554;-81
2021/12/06 03:55:34;;;;;;;14.40;7.90;;;;;;;3.61;78.46;99481.91;5022209;28;20052;-81
2021/12/06 03:58:03;;;;;;;13.88;8.10;;;;;;;3.60;78.54;99482.81;5018134;28;20100;-81
2021/12/06 04:00:30;;;;;;;14.48;7.47;;;;;;;3.60;78.61;99484.59;5019850;28;20052;-81
2021/12/06 04:02:58;;;;;;;14.35;7.53;;;;;;;3.59;78.58;99490.81;4971558;28;20038;-80
2021/12/06 04:05:25;;;;;;;14.25;7.55;;;;;;;3.60;78.44;99489.88;4982740;28;20136;-80
2021/12/06 04:07:52;;;;;;;15.55;8.48;;;;;;;3.58;78.21;99489.94;5010171;28;20157;-81
2021/12/06 04:10:19;;;;;;;18.92;8.35;;;;;;;3.58;78.26;99492.56;5037191;28;20038;-81
2021/12/06 04:12:47;;;;;;;13.60;8.13;;;;;;;3.56;78.34;99504.97;4988413;28;20128;-81
2021/12/06 04:15:14;;;;;;;25.98;12.45;;;;;;;3.55;78.34;99503.28;5023777;28;20049;-81
2021/12/06 04:17:41;;;;;;;22.45;11.10;;;;;;;3.56;78.39;99510.22;5022073;28;20051;-81
2021/12/06 04:20:10;;;;;;;19.90;9.38;;;;;;;3.53;78.28;99505.16;5023182;28;20051;-81
2021/12/06 04:22:39;;;;;;;15.55;7.35;;;;;;;3.53;77.98;99504.31;5009606;28;20038;-81
2021/12/06 04:25:09;;;;;;;16.25;7.80;;;;;;;3.52;78.17;99514.00;5021733;28;20477;-81
2021/12/06 04:27:41;;;;;;;16.08;9.65;;;;;;;3.51;78.37;99508.81;5005001;28;20461;-81
2021/12/06 04:30:11;;;;;;;20.15;9.57;;;;;;;3.50;78.27;99505.38;4996207;28;20041;-81
2021/12/06 04:32:38;;;;;;;20.17;10.50;;;;;;;3.51;78.46;99521.94;5006234;28;20055;-81
2021/12/06 04:35:06;;;;;;;30.60;12.48;;;;;;;3.49;78.24;99527.31;5009016;28;20049;-81
2021/12/06 04:37:32;;;;;;;21.38;12.25;;;;;;;3.42;78.46;99531.25;5003072;28;20061;-81
2021/12/06 04:39:59;;;;;;;29.40;12.48;;;;;;;3.36;78.39;99535.13;5023305;28;20041;-81
2021/12/06 04:42:28;;;;;;;30.65;11.57;;;;;;;3.35;78.19;99543.09;5021919;28;20612;-81
2021/12/06 04:44:55;;;;;;;22.92;10.38;;;;;;;3.35;78.59;99548.34;5000604;28;20052;-81
2021/12/06 04:47:22;;;;;;;217.40;19.33;;;;;;;3.33;78.64;99558.09;5037333;28;20042;-81
2021/12/06 04:49:49;;;;;;;118.47;15.40;;;;;;;3.30;78.64;99556.50;5024429;28;20045;-81
2021/12/06 04:52:17;;;;;;;132.07;15.75;;;;;;;3.20;78.74;99565.88;5021705;28;20444;-80
2021/12/06 04:54:50;;;;;;;42.33;12.25;;;;;;;3.24;78.41;99570.00;5036320;28;20124;-80
2021/12/06 04:57:32;;;;;;;28.20;11.07;;;;;;;3.21;78.80;99576.28;5005732;28;20037;-81
2021/12/06 05:00:05;;;;;;;30.83;11.45;;;;;;;3.28;78.78;99584.59;5042232;28;20073;-81
2021/12/06 05:02:35;;;;;;;;;;;;;;;3.15;79.39;99588.94;5003444;28;20053;-81
2021/12/06 05:05:08;;;;;;;25.38;11.27;;;;;;;3.24;79.08;99594.47;5006937;28;19932;-81
2021/12/06 05:07:40;;;;;;;21.60;10.93;;;;;;;3.26;79.07;99594.38;5012275;28;20057;-80
2021/12/06 05:10:10;;;;;;;23.17;10.20;;;;;;;3.28;78.79;99602.97;5021441;28;20133;-81
2021/12/06 05:12:39;;;;;;;21.20;10.95;;;;;;;3.30;78.90;99605.50;5002620;28;20129;-81
2021/12/06 05:15:06;;;;;;;19.83;10.05;;;;;;;3.32;78.89;99614.97;4989699;28;20077;-81
2021/12/06 05:17:33;;;;;;;17.50;9.70;;;;;;;3.33;78.90;99611.41;5005751;28;20749;-81
2021/12/06 05:20:04;;;;;;;27.88;10.10;;;;;;;3.34;78.90;99617.53;4997187;28;20049;-81
2021/12/06 05:22:32;;;;;;;13.63;7.28;;;;;;;3.36;79.22;99613.00;5026022;28;20103;-80
2021/12/06 05:24:58;;;;;;;10.98;6.60;;;;;;;3.38;78.93;99624.25;5022421;28;20547;-80
2021/12/06 05:27:29;;;;;;;12.40;7.28;;;;;;;3.37;79.12;99620.78;5002545;28;20477;-81
2021/12/06 05:30:01;;;;;;;12.20;6.83;;;;;;;3.36;78.99;99621.75;5006038;28;20056;-81
2021/12/06 05:32:31;;;;;;;11.90;6.18;;;;;;;3.38;79.05;99616.38;4943043;28;20046;-81
2021/12/06 05:35:05;;;;;;;10.10;6.65;;;;;;;3.37;78.92;99620.78;4938606;28;20050;-81
2021/12/06 05:37:33;;;;;;;11.30;7.60;;;;;;;3.39;79.02;99623.34;4950558;28;20039;-81
2021/12/06 05:39:59;;;;;;;11.68;7.25;;;;;;;3.39;79.09;99629.41;4949250;28;20059;-80
2021/12/06 05:42:26;;;;;;;12.05;7.80;;;;;;;3.38;79.07;99625.09;4933776;28;20051;-81
2021/12/06 05:44:53;;;;;;;15.30;8.35;;;;;;;3.39;79.12;99634.66;4966812;28;20047;-81
2021/12/06 05:47:20;;;;;;;17.23;10.63;;;;;;;3.40;78.81;99641.59;4964597;28;20152;-81
2021/12/06 05:49:46;;;;;;;17.02;10.77;;;;;;;3.39;79.02;99646.94;4962689;28;20047;-81
2021/12/06 05:52:13;;;;;;;17.80;10.43;;;;;;;3.38;79.08;99643.47;4962455;28;20047;-81
2021/12/06 05:54:40;;;;;;;46.47;18.75;;;;;;;3.38;78.77;99648.72;4965930;28;20065;-81
2021/12/06 05:57:09;;;;;;;38.72;18.02;;;;;;;3.39;79.01;99649.56;4963561;28;20050;-80
2021/12/06 05:59:39;;;;;;;42.38;19.75;;;;;;;3.37;78.89;99665.41;4960337;28;20165;-81
2021/12/06 06:02:07;;;;;;;43.05;18.17;;;;;;;3.38;78.97;99661.00;4965880;28;20485;-80
2021/12/06 06:04:34;;;;;;;31.50;15.40;;;;;;;3.36;78.80;99666.34;4975518;28;20100;-80
2021/12/06 06:07:01;;;;;;;32.88;15.85;;;;;;;3.36;78.63;99676.84;4998399;28;20068;-81
2021/12/06 06:09:28;;;;;;;39.20;17.02;;;;;;;3.36;78.79;99678.59;5020959;28;20437;-81
2021/12/06 06:11:55;;;;;;;34.03;16.52;;;;;;;3.35;78.83;99682.19;5031677;28;20128;-81
2021/12/06 06:14:21;;;;;;;33.60;16.13;;;;;;;3.35;78.89;99690.91;5040131;28;20044;-81
2021/12/06 06:16:51;;;;;;;30.73;15.45;;;;;;;3.35;79.02;99696.16;5020934;28;20052;-81
2021/12/06 06:19:23;;;;;;;24.95;12.32;;;;;;;3.33;78.66;99697.16;5018761;28;20050;-80
2021/12/06 06:21:52;;;;;;;22.55;12.38;;;;;;;3.34;79.05;99707.59;5038595;28;20057;-81
2021/12/06 06:24:18;;;;;;;23.35;12.05;;;;;;;3.33;78.96;99699.78;5020642;28;20047;-80
2021/12/06 06:26:45;;;;;;;23.15;11.07;;;;;;;3.35;78.83;99705.81;5008837;28;20048;-81
2021/12/06 06:29:13;;;;;;;20.70;12.05;;;;;;;3.35;78.98;99697.94;5011192;28;20409;-80
2021/12/06 06:31:40;;;;;;;25.08;11.68;;;;;;;3.34;79.16;99694.47;5023537;28;20045;-80
2021/12/06 06:34:07;;;;;;;26.17;12.43;;;;;;;3.33;79.04;99713.75;5020981;28;20493;-81
2021/12/06 06:36:35;;;;;;;24.40;12.27;;;;;;;3.34;79.09;99712.84;5007568;28;20052;-80
2021/12/06 06:39:05;;;;;;;22.52;11.88;;;;;;;3.34;78.89;99719.88;5027122;28;20041;-80
2021/12/06 06:41:32;;;;;;;19.63;11.40;;;;;;;3.33;79.21;99729.50;5037915;28;20057;-80
2021/12/06 06:43:59;;;;;;;21.58;12.18;;;;;;;3.34;78.82;99728.59;5021416;28;20087;-80
2021/12/06 06:46:25;;;;;;;20.63;11.02;;;;;;;3.33;78.97;99734.75;5024318;28;20476;-80
2021/12/06 06:48:53;;;;;;;19.60;10.60;;;;;;;3.33;78.82;99742.63;5024715;28;20045;-80
2021/12/06 06:51:20;;;;;;;20.88;10.77;;;;;;;3.34;79.05;99735.63;5024560;28;20045;-79
2021/12/06 06:53:47;;;;;;;16.55;9.55;;;;;;;3.34;79.20;99743.50;5025108;28;20493;-80
2021/12/06 06:56:13;;;;;;;19.30;10.60;;;;;;;3.34;79.17;99739.09;5039469;28;20620;-81
2021/12/06 06:58:40;;;;;;;17.27;9.63;;;;;;;3.34;78.95;99743.50;5025826;28;20057;-80
2021/12/06 07:01:07;;;;;;;17.27;9.48;;;;;;;3.33;79.13;99747.88;4993449;28;20485;-80
2021/12/06 07:03:34;;;;;;;20.98;10.50;;;;;;;3.32;78.84;99750.63;5026976;28;20052;-81
2021/12/06 07:06:03;;;;;;;22.77;11.13;;;;;;;3.32;78.81;99755.84;5023409;28;20068;-80
2021/12/06 07:08:30;;;;;;;23.92;12.23;;;;;;;3.32;78.82;99751.44;5025932;28;20053;-81
2021/12/06 07:10:58;;;;;;;27.42;12.57;;;;;;;3.31;79.19;99746.28;5017120;28;20034;-80
2021/12/06 07:13:27;;;;;;;22.10;12.65;;;;;;;3.32;79.07;99751.44;5002873;28;20549;-80
2021/12/06 07:15:54;;;;;;;22.48;11.88;;;;;;;3.31;79.04;99741.91;5016607;28;20489;-80
2021/12/06 07:18:23;;;;;;;22.98;12.68;;;;;;;3.30;78.97;99748.06;5030928;28;20053;-79
2021/12/06 07:20:51;;;;;;;21.85;12.30;;;;;;;3.31;78.97;99741.03;5020021;28;20056;-79
2021/12/06 07:23:19;;;;;;;18.83;11.38;;;;;;;3.29;78.95;99746.38;5023125;28;20033;-79
2021/12/06 07:25:47;;;;;;;25.58;12.60;;;;;;;3.29;78.79;99754.25;5016479;28;20436;-79
2021/12/06 07:28:14;;;;;;;21.95;11.85;;;;;;;3.30;79.13;99768.22;5039227;28;20052;-79
2021/12/06 07:30:42;;;;;;;16.50;9.50;;;;;;;3.29;79.06;99756.06;5021486;28;20772;-78
2021/12/06 07:33:10;;;;;;;16.63;10.02;;;;;;;3.29;79.15;99754.25;5037911;28;20037;-79
2021/12/06 07:35:38;;;;;;;18.73;10.07;;;;;;;3.29;79.20;99770.00;5022183;28;20052;-79
2021/12/06 07:38:07;;;;;;;16.40;9.95;;;;;;;3.28;78.94;99765.69;5024213;28;20864;-78
2021/12/06 07:40:35;;;;;;;21.08;11.32;;;;;;;3.30;79.04;99770.84;5019935;28;20053;-78
2021/12/06 07:43:02;;;;;;;19.30;11.15;;;;;;;3.28;78.85;99773.56;4987354;28;20057;-79
2021/12/06 07:45:29;;;;;;;18.15;11.32;;;;;;;3.30;78.91;99781.34;5005178;28;20046;-79
2021/12/06 07:47:56;;;;;;;21.08;11.98;;;;;;;3.29;79.12;99791.00;5004486;28;20038;-79
2021/12/06 07:50:22;;;;;;;18.92;10.52;;;;;;;3.30;79.04;99802.34;5053463;28;20405;-79
2021/12/06 07:52:51;;;;;;;16.63;8.93;;;;;;;3.29;79.07;99795.41;5023054;28;20045;-78
2021/12/06 07:55:22;;;;;;;15.32;8.93;;;;;;;3.27;79.06;99800.75;5038834;28;20057;-79
2021/12/06 07:57:49;;;;;;;17.17;9.35;;;;;;;3.29;78.97;99804.13;5017880;28;20421;-79
2021/12/06 08:00:19;;;;;;;15.25;9.82;;;;;;;3.29;79.07;99804.13;5038473;28;20037;-80
2021/12/06 08:02:47;;;;;;;14.60;9.23;;;;;;;3.28;79.23;99793.69;5039306;28;20041;-80
2021/12/06 08:05:32;;;;;;;16.20;9.45;;;;;;;3.29;79.18;99798.03;5038426;28;20100;-79
2021/12/06 08:08:12;;;;;;;15.95;9.65;;;;;;;3.23;79.11;99797.47;5007939;28;20049;-80
2021/12/06 08:10:48;;;;;;;13.75;9.18;;;;;;;3.26;78.87;99806.94;5000230;28;20056;-79
2021/12/06 08:13:20;;;;;;;17.00;9.00;;;;;;;3.26;79.13;99805.16;5017203;28;20050;-80
2021/12/06 08:15:49;;;;;;;15.45;9.43;;;;;;;3.29;79.21;99805.91;5026601;28;20049;-81
2021/12/06 08:18:16;;;;;;;17.20;9.85;;;;;;;3.29;79.23;99814.63;5019707;28;20045;-81
2021/12/06 08:20:43;;;;;;;17.23;9.18;;;;;;;3.29;79.12;99808.53;5022574;28;20061;-81
2021/12/06 08:23:10;;;;;;;20.38;10.95;;;;;;;3.31;79.33;99811.88;5022479;28;20068;-81
2021/12/06 08:25:38;;;;;;;21.20;11.40;;;;;;;3.30;79.30;99813.66;5022059;28;20045;-81
2021/12/06 08:28:05;;;;;;;17.65;10.45;;;;;;;3.32;79.31;99824.94;5004202;28;20809;-81
2021/12/06 08:30:32;;;;;;;19.90;11.00;;;;;;;3.31;79.27;99822.38;5023450;28;20076;-81
2021/12/06 08:33:01;;;;;;;15.05;9.07;;;;;;;3.32;79.27;99829.34;5038277;28;20068;-81
2021/12/06 08:35:35;;;;;;;16.30;9.57;;;;;;;3.30;79.23;99831.22;5026275;28;20046;-81
2021/12/06 08:38:03;;;;;;;20.42;9.98;;;;;;;3.33;79.14;99836.28;5014894;28;20050;-79
2021/12/06 08:40:31;;;;;;;19.77;10.52;;;;;;;3.33;79.34;99828.41;5020203;28;20096;-79
2021/12/06 08:42:57;;;;;;;19.45;10.18;;;;;;;3.32;79.20;99829.34;4991950;28;20520;-78
2021/12/06 08:45:26;;;;;;;15.13;10.10;;;;;;;3.33;79.30;99826.59;5008097;28;20366;-79
2021/12/06 08:47:54;;;;;;;18.42;10.52;;;;;;;3.34;79.27;99830.09;5003526;28;20049;-78
2021/12/06 08:50:22;;;;;;;23.15;10.68;;;;;;;3.35;79.26;99839.66;5004431;28;20057;-78
2021/12/06 08:52:54;;;;;;;16.20;9.27;;;;;;;3.32;79.40;99838.06;5027560;28;20065;-78
2021/12/06 08:55:22;;;;;;;15.13;9.38;;;;;;;3.35;79.37;99831.78;5000123;28;20042;-79
2021/12/06 08:57:50;;;;;;;17.33;9.07;;;;;;;3.36;79.28;99838.72;5025572;28;20053;-78
2021/12/06 09:00:20;;;;;;;19.05;10.20;;;;;;;3.36;79.32;99838.72;5027835;28;20057;-79
2021/12/06 09:02:48;;;;;;;16.83;9.90;;;;;;;3.35;79.31;99837.88;5006343;28;20128;-79
2021/12/06 09:05:25;;;;;;;19.95;10.77;;;;;;;3.37;79.48;99843.88;5021572;28;20041;-79
2021/12/06 09:07:52;;;;;;;18.40;10.40;;;;;;;3.36;79.46;99852.69;5021671;28;20037;-81
2021/12/06 09:10:19;;;;;;;23.17;10.95;;;;;;;3.37;79.47;99837.78;5026542;28;20099;-79
2021/12/06 09:12:46;;;;;;;20.98;11.60;;;;;;;3.39;79.25;99841.19;5044578;28;20042;-80
2021/12/06 09:15:19;;;;;;;25.65;11.63;;;;;;;3.37;79.35;99843.03;5039999;28;20049;-81
2021/12/06 09:17:48;;;;;;;24.33;11.00;;;;;;;3.39;79.25;99847.28;5016083;28;20053;-79
2021/12/06 09:20:24;;;;;;;19.15;11.35;;;;;;;3.39;79.60;99846.44;5030632;28;20055;-80
2021/12/06 09:22:51;;;;;;;16.98;9.85;;;;;;;3.41;79.47;99855.03;5015595;28;20053;-79
2021/12/06 09:25:18;;;;;;;19.35;10.75;;;;;;;3.41;79.59;99849.78;5005167;28;20077;-79
2021/12/06 09:27:45;;;;;;;21.92;11.07;;;;;;;3.42;79.65;99846.25;5018898;28;20042;-80
2021/12/06 09:30:17;;;;;;;17.63;10.38;;;;;;;3.42;79.42;99843.63;5003937;28;20053;-80
2021/12/06 09:32:45;;;;;;;20.70;11.23;;;;;;;3.45;79.55;99846.91;5023030;28;20437;-82
2021/12/06 09:35:15;;;;;;;21.08;11.90;;;;;;;3.46;79.66;99848.59;5007660;28;20428;-81
2021/12/06 09:37:44;;;;;;;23.17;12.98;;;;;;;3.48;79.64;99844.09;5002727;28;20053;-78
2021/12/06 09:40:11;;;;;;;20.27;11.90;;;;;;;3.50;79.97;99846.63;5037507;28;20091;-82
2021/12/06 09:42:42;;;;;;;19.05;11.82;;;;;;;3.52;79.77;99843.94;5013277;28;20050;-81
2021/12/06 09:45:11;;;;;;;20.83;12.57;;;;;;;3.53;79.98;99850.84;5024738;28;20045;-81
2021/12/06 09:47:40;;;;;;;24.65;15.30;;;;;;;3.54;79.93;99850.78;5028273;28;20037;-80
2021/12/06 09:50:07;;;;;;;26.98;13.18;;;;;;;3.56;79.95;99848.91;5019011;28;20045;-81
2021/12/06 09:52:34;;;;;;;15.85;7.57;;;;;;;3.56;80.31;99848.91;5025412;28;20055;-81
2021/12/06 09:55:01;;;;;;;27.08;12.32;;;;;;;3.56;80.17;99848.91;5022983;28;20053;-81
2021/12/06 09:57:27;;;;;;;23.15;10.77;;;;;;;3.58;80.23;99848.81;5033495;28;20056;-81
2021/12/06 09:59:55;;;;;;;27.40;12.65;;;;;;;3.54;80.42;99848.16;5014030;28;20056;-81
2021/12/06 10:02:22;;;;;;;28.30;12.75;;;;;;;3.56;80.28;99848.91;5022540;28;20056;-80
2021/12/06 10:04:55;;;;;;;22.48;11.55;;;;;;;3.58;80.33;99846.19;5025238;28;20721;-80
2021/12/06 10:07:24;;;;;;;30.55;13.25;;;;;;;3.57;80.41;99853.22;5021136;28;20049;-80
2021/12/06 10:09:53;;;;;;;30.08;13.63;;;;;;;3.59;80.53;99847.88;5025766;28;20042;-81
2021/12/06 10:12:22;;;;;;;29.27;11.30;;;;;;;3.56;80.58;99843.66;5022930;28;20405;-81
2021/12/06 10:14:49;;;;;;;31.45;12.57;;;;;;;3.61;80.53;99845.97;5024266;28;20041;-80
2021/12/06 10:17:17;;;;;;;30.23;13.32;;;;;;;3.62;80.27;99842.44;5038609;28;20045;-81
2021/12/06 10:19:45;;;;;;;27.33;11.77;;;;;;;3.64;80.42;99853.72;5010612;28;20045;-80
2021/12/06 10:22:13;;;;;;;33.33;13.82;;;;;;;3.65;80.60;99842.25;5022800;28;20049;-80
2021/12/06 10:24:41;;;;;;;27.63;11.80;;;;;;;3.64;80.21;99846.66;5024565;28;20057;-80
2021/12/06 10:27:12;;;;;;;29.13;11.95;;;;;;;3.64;80.48;99853.72;5038605;28;20037;-81
2021/12/06 10:30:03;;;;;;;28.73;12.98;;;;;;;3.65;80.57;99844.88;4996909;28;20670;-80
2021/12/06 10:32:33;;;;;;;28.83;11.90;;;;;;;3.63;80.45;99839.72;4998343;28;20050;-80
2021/12/06 10:35:05;;;;;;;25.25;10.95;;;;;;;3.64;80.46;99840.56;4986547;28;20054;-81
2021/12/06 10:37:43;;;;;;;36.05;13.80;;;;;;;3.63;80.40;99839.72;5002720;28;20038;-80
2021/12/06 10:40:16;;;;;;;34.92;13.70;;;;;;;3.65;80.19;99832.59;5022908;28;20044;-80
2021/12/06 10:42:47;;;;;;;34.83;13.55;;;;;;;3.65;80.24;99832.59;5035349;28;20048;-80
2021/12/06 10:45:19;;;;;;;39.30;15.65;;;;;;;3.65;80.35;99829.13;5022051;28;20053;-80
2021/12/06 10:48:05;;;;;;;40.25;14.02;;;;;;;3.58;80.24;99833.88;5022171;28;20052;-78
2021/12/06 10:50:32;;;;;;;34.35;18.05;;;;;;;3.66;83.71;99831.66;5014914;28;20413;-80
2021/12/06 10:53:01;;;;;;;43.45;15.45;;;;;;;3.78;81.83;99829.22;5026432;28;20045;-79
2021/12/06 10:55:30;;;;;;;51.40;15.90;;;;;;;3.78;81.26;99831.84;5040466;28;20068;-80
2021/12/06 10:58:04;;;;;;;47.60;16.33;;;;;;;3.78;80.79;99822.19;5021297;28;20094;-80
2021/12/06 11:00:49;;;;;;;43.95;16.90;;;;;;;3.76;80.47;99821.44;5016729;28;20060;-80
2021/12/06 11:03:33;;;;;;;51.22;17.33;;;;;;;3.70;80.69;99817.41;5019306;28;20060;-79
2021/12/06 11:06:09;;;;;;;52.58;20.25;;;;;;;3.72;80.49;99812.06;5016503;28;20049;-80
2021/12/06 11:08:37;;;;;;;55.50;20.15;;;;;;;3.73;80.81;99816.38;5004352;28;20045;-82
2021/12/06 11:11:16;;;;;;;55.00;20.02;;;;;;;3.68;80.83;99813.19;5019091;28;20049;-81
2021/12/06 11:13:49;;;;;;;51.50;19.05;;;;;;;3.70;80.73;99817.41;5019327;28;20056;-81
2021/12/06 11:16:45;;;;;;;41.90;16.38;;;;;;;3.63;80.74;99813.44;4998678;28;20041;-79
2021/12/06 11:19:18;;;;;;;45.35;17.02;;;;;;;3.65;81.04;99816.84;5011567;28;20049;-81
2021/12/06 11:21:52;;;;;;;42.00;14.43;;;;;;;3.68;80.95;99823.69;5014552;28;20053;-80
2021/12/06 11:24:39;;;;;;;49.60;17.90;;;;;;;3.65;80.96;99826.50;5012341;28;20636;-80
2021/12/06 11:27:22;;;;;;;44.30;15.90;;;;;;;3.62;80.93;99819.66;5033747;28;20523;-80
2021/12/06 11:29:54;;;;;;;;;;;;;;;3.53;81.19;99819.34;4996878;28;20056;-80
2021/12/06 11:32:31;;;;;;;45.25;16.08;;;;;;;3.58;80.88;99822.53;5003568;28;19922;-80
2021/12/06 11:35:06;;;;;;;51.58;17.98;;;;;;;3.62;80.96;99826.69;5005314;28;20065;-80
2021/12/06 11:37:35;;;;;;;48.58;17.35;;;;;;;3.59;81.52;99826.88;5021790;28;20037;-80
2021/12/06 11:40:09;;;;;;;46.80;17.45;;;;;;;3.57;81.33;99828.75;5038155;28;20048;-80
2021/12/06 11:43:03;;;;;;;36.92;12.73;;;;;;;3.55;81.36;99831.44;5020119;28;20461;-80
2021/12/06 11:45:49;;;;;;;49.22;17.45;;;;;;;3.60;81.12;99833.81;5004257;28;20072;-81
2021/12/06 11:48:20;;;;;;;55.42;20.05;;;;;;;3.64;81.46;99830.91;5007111;28;20120;-80
2021/12/06 11:50:51;;;;;;;54.63;20.13;;;;;;;3.66;81.45;99833.44;5015478;28;20121;-80
2021/12/06 11:53:23;;;;;;;55.40;20.23;;;;;;;3.65;81.68;99826.50;4998032;28;20124;-80
2021/12/06 11:56:11;;;;;;;57.30;20.25;;;;;;;3.60;81.24;99828.56;5001098;28;20743;-79